Mississagi — CFG8050 — position and weather

sailwx.info

Track history (hours):
 
Tides and Currents Weather Stations Pressure Air Temp Water Temp Dewpoint Dewpoint Depression Visibility Wind Speed Wind Dir Waves Ship Positions

Mississagi

Last reported at 2015-Jul-04 03:14 UTC. Time now 2015-Jul-04 19:01 UTC.
Position N 45°32' W 083°35'.

Length 189 m; draft 7.2 m.

Type: Cargo ship. MMSI: 316004940.

Date/timePositionNaut miles runAvg speedWind from/ knotsBaromVisibWave heightAir tempDewpointWater temp
2015-Jul-04 03:14N 45°32' W 083°35'911.5
2015-Jul-04 02:27N 45°38' W 083°44'1011.5
2015-Jul-04 01:33N 45°45' W 083°55'1211.6
2015-Jul-04 00:33N 45°52' W 084°08'9 9.0
2015-Jul-03 23:33N 45°59' W 084°16'0 0.0
2015-Jul-03 22:33N 45°59' W 084°16'0 0.0
2015-Jul-03 21:33N 45°59' W 084°16'0 0.0
2015-Jul-03 20:33N 45°59' W 084°16'0 0.0
2015-Jul-03 19:33N 45°59' W 084°16'0 0.0
2015-Jul-03 18:33N 45°59' W 084°16'0 0.0
2015-Jul-03 17:33N 45°59' W 084°16'0 0.0
2015-Jul-03 16:33N 45°59' W 084°16'0 0.0
2015-Jul-03 15:33N 45°59' W 084°16'0 0.0
2015-Jul-03 14:33N 45°59' W 084°16'0 0.3
2015-Jul-03 13:33N 45°59' W 084°16'6 4.7
2015-Jul-03 12:13N 45°54' W 084°21'812.7
2015-Jul-03 11:33N 45°51' W 084°33'1212.3
2015-Jul-03 10:33N 45°49' W 084°50'1212.4
2015-Jul-03 09:33N 45°49' W 085°08'10 9.9
2015-Jul-03 08:33N 45°40' W 085°14'1312.6
2015-Jul-03 07:33N 45°30' W 085°25'1312.7
2015-Jul-03 06:33N 45°20' W 085°36'1312.9
2015-Jul-03 05:33N 45°10' W 085°47'1312.5
2015-Jul-03 04:33N 45°00' W 085°58'1212.1
2015-Jul-03 03:33N 44°53' W 086°12'10 0.2
2015-Jul-01 09:33N 45°02' W 086°18'1111.4
2015-Jul-01 08:33N 45°13' W 086°15'1111.5
2015-Jul-01 07:33N 45°25' W 086°12'1111.4
2015-Jul-01 06:33N 45°36' W 086°08'1111.0
2015-Jul-01 05:33N 45°44' W 085°58'1211.7
2015-Jul-01 04:33N 45°50' W 085°43'1110.8
2015-Jul-01 03:33N 45°53' W 085°28'1111.1
2015-Jul-01 02:33N 45°52' W 085°13'1111.2
2015-Jul-01 01:33N 45°50' W 084°57'1110.8
2015-Jul-01 00:33N 45°49' W 084°41'1111.0
2015-Jun-30 23:33N 45°51' W 084°25'1111.3
2015-Jun-30 22:33N 45°50' W 084°09'2 0.1
2015-Jun-30 06:05N 45°50' W 084°06'712.5
2015-Jun-30 05:33N 45°51' W 084°16'1312.6
2015-Jun-30 04:33N 45°51' W 084°34'1211.9
2015-Jun-30 03:33N 45°49' W 084°51'1212.0
2015-Jun-30 02:34N 45°50' W 085°08'1010.5
2015-Jun-30 01:33N 45°40' W 085°15'1312.6
2015-Jun-30 00:33N 45°30' W 085°25'1312.5
2015-Jun-29 23:33N 45°20' W 085°36'1312.6
2015-Jun-29 22:33N 45°10' W 085°47'1212.4
2015-Jun-29 21:33N 45°00' W 085°58'1212.4
2015-Jun-29 20:33N 44°54' W 086°13'23 1.3
2015-Jun-29 03:33N 44°34' W 086°28'1211.6
2015-Jun-29 02:33N 44°45' W 086°26'1211.6
2015-Jun-29 01:33N 44°57' W 086°21'1211.5
2015-Jun-29 00:33N 45°08' W 086°18'1111.4
2015-Jun-28 23:33N 45°19' W 086°14'1211.5
2015-Jun-28 22:33N 45°30' W 086°10'1111.3
2015-Jun-28 21:34N 45°41' W 086°06'1111.2
2015-Jun-28 20:33N 45°46' W 085°52'1110.9
2015-Jun-28 19:34N 45°52' W 085°38'1010.4
2015-Jun-28 18:33N 45°53' W 085°24'1111.2
2015-Jun-28 17:33N 45°51' W 085°08'1111.2
2015-Jun-28 16:33N 45°50' W 084°52'1110.5
2015-Jun-28 15:33N 45°51' W 084°37'10 9.9
2015-Jun-28 14:33N 45°52' W 084°23'1111.5
2015-Jun-28 13:33N 45°54' W 084°06'1010.1
2015-Jun-28 12:33N 45°59' W 083°53'10 9.4
2015-Jun-28 11:27N 46°08' W 083°46'4 0.3
2015-Jun-27 21:33N 46°12' W 083°44'  
Track history (hours):
 
Tides and Currents Weather Stations Pressure Air Temp Water Temp Dewpoint Dewpoint Depression Visibility Wind Speed Wind Dir Waves Ship Positions

Mississagi

Last reported at 2015-Jul-04 03:14 UTC. Time now 2015-Jul-04 19:01 UTC.
Position N 45°32' W 083°35'.

Length 189 m; draft 7.2 m.

Type: Cargo ship. MMSI: 316004940.

Date/timePositionNaut miles runAvg speedWind from/ knotsBaromVisibWave heightAir tempDewpointWater temp
2015-Jul-04 03:14N 45°32' W 083°35'911.5
2015-Jul-04 02:27N 45°38' W 083°44'1011.5
2015-Jul-04 01:33N 45°45' W 083°55'1211.6
2015-Jul-04 00:33N 45°52' W 084°08'9 9.0
2015-Jul-03 23:33N 45°59' W 084°16'0 0.0
2015-Jul-03 22:33N 45°59' W 084°16'0 0.0
2015-Jul-03 21:33N 45°59' W 084°16'0 0.0
2015-Jul-03 20:33N 45°59' W 084°16'0 0.0
2015-Jul-03 19:33N 45°59' W 084°16'0 0.0
2015-Jul-03 18:33N 45°59' W 084°16'0 0.0
2015-Jul-03 17:33N 45°59' W 084°16'0 0.0
2015-Jul-03 16:33N 45°59' W 084°16'0 0.0
2015-Jul-03 15:33N 45°59' W 084°16'0 0.0
2015-Jul-03 14:33N 45°59' W 084°16'0 0.3
2015-Jul-03 13:33N 45°59' W 084°16'6 4.7
2015-Jul-03 12:13N 45°54' W 084°21'812.7
2015-Jul-03 11:33N 45°51' W 084°33'1212.3
2015-Jul-03 10:33N 45°49' W 084°50'1212.4
2015-Jul-03 09:33N 45°49' W 085°08'10 9.9
2015-Jul-03 08:33N 45°40' W 085°14'1312.6
2015-Jul-03 07:33N 45°30' W 085°25'1312.7
2015-Jul-03 06:33N 45°20' W 085°36'1312.9
2015-Jul-03 05:33N 45°10' W 085°47'1312.5
2015-Jul-03 04:33N 45°00' W 085°58'1212.1
2015-Jul-03 03:33N 44°53' W 086°12'10 0.2
2015-Jul-01 09:33N 45°02' W 086°18'1111.4
2015-Jul-01 08:33N 45°13' W 086°15'1111.5
2015-Jul-01 07:33N 45°25' W 086°12'1111.4
2015-Jul-01 06:33N 45°36' W 086°08'1111.0
2015-Jul-01 05:33N 45°44' W 085°58'1211.7
2015-Jul-01 04:33N 45°50' W 085°43'1110.8
2015-Jul-01 03:33N 45°53' W 085°28'1111.1
2015-Jul-01 02:33N 45°52' W 085°13'1111.2
2015-Jul-01 01:33N 45°50' W 084°57'1110.8
2015-Jul-01 00:33N 45°49' W 084°41'1111.0
2015-Jun-30 23:33N 45°51' W 084°25'1111.3
2015-Jun-30 22:33N 45°50' W 084°09'2 0.1
2015-Jun-30 06:05N 45°50' W 084°06'712.5
2015-Jun-30 05:33N 45°51' W 084°16'1312.6
2015-Jun-30 04:33N 45°51' W 084°34'1211.9
2015-Jun-30 03:33N 45°49' W 084°51'1212.0
2015-Jun-30 02:34N 45°50' W 085°08'1010.5
2015-Jun-30 01:33N 45°40' W 085°15'1312.6
2015-Jun-30 00:33N 45°30' W 085°25'1312.5
2015-Jun-29 23:33N 45°20' W 085°36'1312.6
2015-Jun-29 22:33N 45°10' W 085°47'1212.4
2015-Jun-29 21:33N 45°00' W 085°58'1212.4
2015-Jun-29 20:33N 44°54' W 086°13'23 1.3
2015-Jun-29 03:33N 44°34' W 086°28'1211.6
2015-Jun-29 02:33N 44°45' W 086°26'1211.6
2015-Jun-29 01:33N 44°57' W 086°21'1211.5
2015-Jun-29 00:33N 45°08' W 086°18'1111.4
2015-Jun-28 23:33N 45°19' W 086°14'1211.5
2015-Jun-28 22:33N 45°30' W 086°10'1111.3
2015-Jun-28 21:34N 45°41' W 086°06'1111.2
2015-Jun-28 20:33N 45°46' W 085°52'1110.9
2015-Jun-28 19:34N 45°52' W 085°38'1010.4
2015-Jun-28 18:33N 45°53' W 085°24'1111.2
2015-Jun-28 17:33N 45°51' W 085°08'1111.2
2015-Jun-28 16:33N 45°50' W 084°52'1110.5
2015-Jun-28 15:33N 45°51' W 084°37'10 9.9
2015-Jun-28 14:33N 45°52' W 084°23'1111.5
2015-Jun-28 13:33N 45°54' W 084°06'1010.1
2015-Jun-28 12:33N 45°59' W 083°53'10 9.4
2015-Jun-28 11:27N 46°08' W 083°46'4 0.3
2015-Jun-27 21:33N 46°12' W 083°44'  

Dump ship's entire track history